Terminal Aerodrome Forecast
Issued by NWS Wichita, KS

Home | Current Version | Previous Version | Text Only | Print | Product List | Glossary Off
Versions: 1 2 3 4 5 6 7 8 9 10 11 12 13 14 15 16 17 18 19 20

000
FTUS43 KICT 240210 AAB
TAFICT
TAF AMD
KICT 240210Z 2402/2424 13017KT P6SM OVC028
     FM240500 14013KT 4SM TSRA OVC015CB
     FM240800 15013KT 2SM -DZ BR OVC004=

USA.gov is the U.S. government's official web portal to all federal, state and local government web resources and services.